Rebel Creek, Nevada
Current Conditions -  °F | °C
As of 9:56 PM on Sunday 25 Jan 2015 (Local Time) from KWMC Reporting Station
Clear Clear  
Wind Chill: 25°   Ceiling: Unl
Heat Index: 33°   Visibility: 10mi
Dew Point: 27°   Wind: 9mph
Humidity: 78%   Direction: 110°ESE
Pressure: 30.32"   Gusts: NA
Location:  41.7393°N, 118.104°W
Report Text: KWMC 260556Z AUTO 11008KT 10SM CLR 01/M03 A3032 RMK AO2 SLP275 T00061028 10144 21006 50000 $
Loading
Personal Weather Stations






























Interactive Weather Map New forecast layout! Learn more

10-Day Weather Forecast

Advertisements
Track Severe Weather on mobile